sensor_id;sensor_type;location;lat;lon;timestamp;P1;durP1;ratioP1;P2;durP2;ratioP2
43990;SDS011;29654;50.784;20.604;2022-07-05T00:02:32;5.72;;;5.25;;
43990;SDS011;29654;50.784;20.604;2022-07-05T00:07:35;7.80;;;6.68;;
43990;SDS011;29654;50.784;20.604;2022-07-05T00:12:38;8.30;;;5.22;;
43990;SDS011;29654;50.784;20.604;2022-07-05T00:17:42;6.55;;;5.72;;
43990;SDS011;29654;50.784;20.604;2022-07-05T00:22:45;6.45;;;5.43;;
43990;SDS011;29654;50.784;20.604;2022-07-05T00:27:48;6.60;;;5.88;;
43990;SDS011;29654;50.784;20.604;2022-07-05T00:32:55;5.93;;;5.35;;
43990;SDS011;29654;50.784;20.604;2022-07-05T00:37:58;7.82;;;5.32;;
43990;SDS011;29654;50.784;20.604;2022-07-05T00:43:01;7.63;;;5.97;;
43990;SDS011;29654;50.784;20.604;2022-07-05T00:48:05;5.57;;;5.07;;
43990;SDS011;29654;50.784;20.604;2022-07-05T00:53:08;5.10;;;4.60;;
43990;SDS011;29654;50.784;20.604;2022-07-05T00:58:11;4.38;;;3.78;;
43990;SDS011;29654;50.784;20.604;2022-07-05T01:03:16;5.93;;;4.70;;
43990;SDS011;29654;50.784;20.604;2022-07-05T01:08:19;5.35;;;4.85;;
43990;SDS011;29654;50.784;20.604;2022-07-05T01:13:23;4.88;;;4.50;;
43990;SDS011;29654;50.784;20.604;2022-07-05T01:18:29;5.55;;;4.88;;
43990;SDS011;29654;50.784;20.604;2022-07-05T01:23:34;7.05;;;4.82;;
43990;SDS011;29654;50.784;20.604;2022-07-05T01:28:37;5.38;;;4.88;;
43990;SDS011;29654;50.784;20.604;2022-07-05T01:33:40;6.28;;;5.15;;
43990;SDS011;29654;50.784;20.604;2022-07-05T01:38:45;5.60;;;5.10;;
43990;SDS011;29654;50.784;20.604;2022-07-05T01:43:48;5.32;;;4.72;;
43990;SDS011;29654;50.784;20.604;2022-07-05T01:48:51;5.10;;;4.60;;
43990;SDS011;29654;50.784;20.604;2022-07-05T01:54:00;4.70;;;4.40;;
43990;SDS011;29654;50.784;20.604;2022-07-05T01:59:03;5.22;;;4.88;;
43990;SDS011;29654;50.784;20.604;2022-07-05T02:04:06;5.47;;;5.07;;
43990;SDS011;29654;50.784;20.604;2022-07-05T02:09:13;6.28;;;5.75;;
43990;SDS011;29654;50.784;20.604;2022-07-05T02:14:16;6.50;;;5.90;;
43990;SDS011;29654;50.784;20.604;2022-07-05T02:19:20;5.80;;;5.30;;
43990;SDS011;29654;50.784;20.604;2022-07-05T02:24:25;5.40;;;5.00;;
43990;SDS011;29654;50.784;20.604;2022-07-05T02:29:36;5.22;;;4.82;;
43990;SDS011;29654;50.784;20.604;2022-07-05T02:34:40;5.63;;;5.07;;
43990;SDS011;29654;50.784;20.604;2022-07-05T02:39:46;6.07;;;5.57;;
43990;SDS011;29654;50.784;20.604;2022-07-05T02:44:51;6.50;;;6.00;;
43990;SDS011;29654;50.784;20.604;2022-07-05T02:49:55;6.03;;;5.43;;
43990;SDS011;29654;50.784;20.604;2022-07-05T02:55:01;6.13;;;5.55;;
43990;SDS011;29654;50.784;20.604;2022-07-05T03:00:05;5.70;;;5.25;;
43990;SDS011;29654;50.784;20.604;2022-07-05T03:05:14;6.55;;;5.78;;
43990;SDS011;29654;50.784;20.604;2022-07-05T03:10:28;5.50;;;5.10;;
43990;SDS011;29654;50.784;20.604;2022-07-05T03:15:32;6.43;;;5.38;;
43990;SDS011;29654;50.784;20.604;2022-07-05T03:20:37;5.88;;;5.47;;
43990;SDS011;29654;50.784;20.604;2022-07-05T03:25:41;6.10;;;5.50;;
43990;SDS011;29654;50.784;20.604;2022-07-05T03:30:46;6.03;;;5.13;;
43990;SDS011;29654;50.784;20.604;2022-07-05T03:35:50;5.80;;;5.30;;
43990;SDS011;29654;50.784;20.604;2022-07-05T03:40:55;5.55;;;5.05;;
43990;SDS011;29654;50.784;20.604;2022-07-05T03:46:01;5.72;;;5.15;;
43990;SDS011;29654;50.784;20.604;2022-07-05T03:51:07;5.65;;;5.18;;
43990;SDS011;29654;50.784;20.604;2022-07-05T03:56:12;5.88;;;5.38;;
43990;SDS011;29654;50.784;20.604;2022-07-05T04:01:22;6.05;;;5.53;;
43990;SDS011;29654;50.784;20.604;2022-07-05T04:06:27;6.47;;;5.97;;
43990;SDS011;29654;50.784;20.604;2022-07-05T04:11:33;6.25;;;5.72;;
43990;SDS011;29654;50.784;20.604;2022-07-05T04:16:36;7.10;;;5.78;;
43990;SDS011;29654;50.784;20.604;2022-07-05T04:21:39;6.15;;;5.50;;
43990;SDS011;29654;50.784;20.604;2022-07-05T04:26:44;5.50;;;5.00;;
43990;SDS011;29654;50.784;20.604;2022-07-05T04:31:48;5.30;;;4.78;;
43990;SDS011;29654;50.784;20.604;2022-07-05T04:36:52;5.13;;;4.72;;
43990;SDS011;29654;50.784;20.604;2022-07-05T04:41:57;4.85;;;4.45;;
43990;SDS011;29654;50.784;20.604;2022-07-05T04:47:00;5.35;;;4.95;;
43990;SDS011;29654;50.784;20.604;2022-07-05T04:52:04;4.32;;;4.03;;
43990;SDS011;29654;50.784;20.604;2022-07-05T04:57:10;4.32;;;4.00;;
43990;SDS011;29654;50.784;20.604;2022-07-05T05:02:13;3.90;;;3.60;;
43990;SDS011;29654;50.784;20.604;2022-07-05T05:07:16;4.60;;;4.13;;
43990;SDS011;29654;50.784;20.604;2022-07-05T05:12:20;3.88;;;3.55;;
43990;SDS011;29654;50.784;20.604;2022-07-05T05:17:24;4.45;;;4.10;;
43990;SDS011;29654;50.784;20.604;2022-07-05T05:22:38;4.35;;;4.00;;
43990;SDS011;29654;50.784;20.604;2022-07-05T05:27:44;4.68;;;4.28;;
43990;SDS011;29654;50.784;20.604;2022-07-05T05:32:50;4.35;;;4.05;;
43990;SDS011;29654;50.784;20.604;2022-07-05T05:37:55;4.43;;;4.07;;
43990;SDS011;29654;50.784;20.604;2022-07-05T05:43:00;4.05;;;3.70;;
43990;SDS011;29654;50.784;20.604;2022-07-05T05:48:03;3.83;;;3.60;;
43990;SDS011;29654;50.784;20.604;2022-07-05T05:53:07;3.78;;;3.47;;
43990;SDS011;29654;50.784;20.604;2022-07-05T05:58:12;4.28;;;3.97;;
43990;SDS011;29654;50.784;20.604;2022-07-05T06:03:18;3.88;;;3.58;;
43990;SDS011;29654;50.784;20.604;2022-07-05T06:08:22;3.17;;;2.97;;
43990;SDS011;29654;50.784;20.604;2022-07-05T06:13:26;3.45;;;3.15;;
43990;SDS011;29654;50.784;20.604;2022-07-05T06:18:29;3.15;;;2.95;;
43990;SDS011;29654;50.784;20.604;2022-07-05T06:23:32;3.67;;;3.40;;
43990;SDS011;29654;50.784;20.604;2022-07-05T06:28:37;3.40;;;3.10;;
43990;SDS011;29654;50.784;20.604;2022-07-05T06:33:40;3.72;;;3.53;;
43990;SDS011;29654;50.784;20.604;2022-07-05T06:38:43;3.85;;;3.55;;
43990;SDS011;29654;50.784;20.604;2022-07-05T06:43:47;4.03;;;3.63;;
43990;SDS011;29654;50.784;20.604;2022-07-05T06:48:57;4.53;;;3.63;;
43990;SDS011;29654;50.784;20.604;2022-07-05T06:54:01;3.80;;;3.50;;
43990;SDS011;29654;50.784;20.604;2022-07-05T06:59:06;3.47;;;3.25;;
43990;SDS011;29654;50.784;20.604;2022-07-05T07:04:09;3.20;;;3.00;;
43990;SDS011;29654;50.784;20.604;2022-07-05T07:09:11;3.90;;;3.40;;
43990;SDS011;29654;50.784;20.604;2022-07-05T07:14:23;3.55;;;3.33;;
43990;SDS011;29654;50.784;20.604;2022-07-05T07:19:26;3.70;;;3.40;;
43990;SDS011;29654;50.784;20.604;2022-07-05T07:24:29;3.80;;;3.33;;
43990;SDS011;29654;50.784;20.604;2022-07-05T07:29:34;3.20;;;2.97;;
43990;SDS011;29654;50.784;20.604;2022-07-05T07:34:38;3.72;;;3.20;;
43990;SDS011;29654;50.784;20.604;2022-07-05T07:39:41;3.63;;;3.33;;
43990;SDS011;29654;50.784;20.604;2022-07-05T07:44:45;3.42;;;3.15;;
43990;SDS011;29654;50.784;20.604;2022-07-05T07:49:48;3.50;;;3.20;;
43990;SDS011;29654;50.784;20.604;2022-07-05T07:54:51;3.05;;;2.85;;
43990;SDS011;29654;50.784;20.604;2022-07-05T07:59:56;3.13;;;2.88;;
43990;SDS011;29654;50.784;20.604;2022-07-05T08:04:59;3.92;;;3.15;;
43990;SDS011;29654;50.784;20.604;2022-07-05T08:10:02;3.88;;;3.58;;
43990;SDS011;29654;50.784;20.604;2022-07-05T08:15:08;3.75;;;3.45;;
43990;SDS011;29654;50.784;20.604;2022-07-05T08:20:12;3.72;;;3.42;;
43990;SDS011;29654;50.784;20.604;2022-07-05T08:25:33;3.55;;;3.20;;
43990;SDS011;29654;50.784;20.604;2022-07-05T08:30:37;6.55;;;3.33;;
43990;SDS011;29654;50.784;20.604;2022-07-05T08:35:40;4.68;;;3.45;;
43990;SDS011;29654;50.784;20.604;2022-07-05T08:40:43;3.78;;;3.40;;
43990;SDS011;29654;50.784;20.604;2022-07-05T08:45:52;3.38;;;3.03;;
43990;SDS011;29654;50.784;20.604;2022-07-05T08:50:56;4.25;;;3.03;;
43990;SDS011;29654;50.784;20.604;2022-07-05T08:56:00;3.53;;;3.22;;
43990;SDS011;29654;50.784;20.604;2022-07-05T09:01:05;4.10;;;3.75;;
43990;SDS011;29654;50.784;20.604;2022-07-05T09:06:12;4.25;;;3.95;;
43990;SDS011;29654;50.784;20.604;2022-07-05T09:11:21;4.18;;;3.63;;
43990;SDS011;29654;50.784;20.604;2022-07-05T09:16:27;3.83;;;3.58;;
43990;SDS011;29654;50.784;20.604;2022-07-05T09:21:31;3.78;;;3.47;;
43990;SDS011;29654;50.784;20.604;2022-07-05T09:26:35;3.60;;;3.40;;
43990;SDS011;29654;50.784;20.604;2022-07-05T09:31:42;3.42;;;3.20;;
43990;SDS011;29654;50.784;20.604;2022-07-05T09:36:47;3.55;;;3.35;;
43990;SDS011;29654;50.784;20.604;2022-07-05T09:42:07;3.38;;;3.08;;
43990;SDS011;29654;50.784;20.604;2022-07-05T09:47:24;3.88;;;3.58;;
43990;SDS011;29654;50.784;20.604;2022-07-05T09:52:30;3.63;;;3.33;;
43990;SDS011;29654;50.784;20.604;2022-07-05T09:57:35;3.67;;;3.42;;
43990;SDS011;29654;50.784;20.604;2022-07-05T10:02:42;3.90;;;3.60;;
43990;SDS011;29654;50.784;20.604;2022-07-05T10:07:46;3.67;;;3.42;;
43990;SDS011;29654;50.784;20.604;2022-07-05T10:12:52;4.00;;;3.60;;
43990;SDS011;29654;50.784;20.604;2022-07-05T10:18:00;5.13;;;3.90;;
43990;SDS011;29654;50.784;20.604;2022-07-05T10:23:08;3.92;;;3.63;;
43990;SDS011;29654;50.784;20.604;2022-07-05T10:28:12;5.22;;;4.22;;
43990;SDS011;29654;50.784;20.604;2022-07-05T10:33:19;4.60;;;4.07;;
43990;SDS011;29654;50.784;20.604;2022-07-05T10:38:28;5.32;;;4.90;;
43990;SDS011;29654;50.784;20.604;2022-07-05T10:43:32;5.82;;;5.40;;
43990;SDS011;29654;50.784;20.604;2022-07-05T10:48:36;5.82;;;5.32;;
43990;SDS011;29654;50.784;20.604;2022-07-05T10:59:04;5.63;;;5.20;;
43990;SDS011;29654;50.784;20.604;2022-07-05T11:09:39;6.03;;;5.43;;
43990;SDS011;29654;50.784;20.604;2022-07-05T11:15:05;5.32;;;4.93;;
43990;SDS011;29654;50.784;20.604;2022-07-05T11:20:13;4.68;;;4.35;;
43990;SDS011;29654;50.784;20.604;2022-07-05T11:25:22;4.82;;;4.43;;
43990;SDS011;29654;50.784;20.604;2022-07-05T11:30:25;5.38;;;4.78;;
43990;SDS011;29654;50.784;20.604;2022-07-05T11:35:30;4.68;;;4.30;;
43990;SDS011;29654;50.784;20.604;2022-07-05T11:40:35;4.47;;;4.18;;
43990;SDS011;29654;50.784;20.604;2022-07-05T11:45:39;5.35;;;4.95;;
43990;SDS011;29654;50.784;20.604;2022-07-05T11:50:45;5.80;;;5.40;;
43990;SDS011;29654;50.784;20.604;2022-07-05T11:55:50;5.78;;;5.38;;
43990;SDS011;29654;50.784;20.604;2022-07-05T12:00:57;5.53;;;5.13;;
43990;SDS011;29654;50.784;20.604;2022-07-05T12:06:10;4.95;;;4.55;;
43990;SDS011;29654;50.784;20.604;2022-07-05T12:11:14;4.65;;;4.32;;
43990;SDS011;29654;50.784;20.604;2022-07-05T12:16:35;3.92;;;3.63;;
43990;SDS011;29654;50.784;20.604;2022-07-05T12:21:39;4.05;;;3.85;;
43990;SDS011;29654;50.784;20.604;2022-07-05T12:26:42;4.32;;;4.03;;
43990;SDS011;29654;50.784;20.604;2022-07-05T12:32:01;4.60;;;4.13;;
43990;SDS011;29654;50.784;20.604;2022-07-05T12:37:10;4.47;;;4.15;;
43990;SDS011;29654;50.784;20.604;2022-07-05T12:42:31;4.45;;;4.15;;
43990;SDS011;29654;50.784;20.604;2022-07-05T12:47:36;4.97;;;4.30;;
43990;SDS011;29654;50.784;20.604;2022-07-05T12:52:58;5.35;;;4.22;;
43990;SDS011;29654;50.784;20.604;2022-07-05T12:58:19;4.55;;;4.25;;
43990;SDS011;29654;50.784;20.604;2022-07-05T13:03:22;5.53;;;4.60;;
43990;SDS011;29654;50.784;20.604;2022-07-05T13:08:29;4.88;;;4.50;;
43990;SDS011;29654;50.784;20.604;2022-07-05T13:13:32;5.32;;;4.82;;
43990;SDS011;29654;50.784;20.604;2022-07-05T13:18:35;5.03;;;4.63;;
43990;SDS011;29654;50.784;20.604;2022-07-05T13:23:39;5.35;;;4.85;;
43990;SDS011;29654;50.784;20.604;2022-07-05T13:28:42;4.90;;;4.50;;
43990;SDS011;29654;50.784;20.604;2022-07-05T13:33:45;5.38;;;4.93;;
43990;SDS011;29654;50.784;20.604;2022-07-05T13:38:50;5.07;;;4.68;;
43990;SDS011;29654;50.784;20.604;2022-07-05T13:43:52;4.53;;;4.22;;
43990;SDS011;29654;50.784;20.604;2022-07-05T13:48:55;5.18;;;4.68;;
43990;SDS011;29654;50.784;20.604;2022-07-05T13:54:00;5.60;;;4.97;;
43990;SDS011;29654;50.784;20.604;2022-07-05T13:59:03;5.00;;;4.57;;
43990;SDS011;29654;50.784;20.604;2022-07-05T14:04:06;4.65;;;4.25;;
43990;SDS011;29654;50.784;20.604;2022-07-05T14:09:10;5.38;;;4.88;;
43990;SDS011;29654;50.784;20.604;2022-07-05T14:14:13;5.05;;;4.57;;
43990;SDS011;29654;50.784;20.604;2022-07-05T14:19:16;4.97;;;4.55;;
43990;SDS011;29654;50.784;20.604;2022-07-05T14:24:20;4.07;;;3.78;;
43990;SDS011;29654;50.784;20.604;2022-07-05T14:29:23;4.97;;;4.57;;
43990;SDS011;29654;50.784;20.604;2022-07-05T14:34:26;4.95;;;4.50;;
43990;SDS011;29654;50.784;20.604;2022-07-05T14:39:31;3.70;;;3.40;;
43990;SDS011;29654;50.784;20.604;2022-07-05T14:44:33;4.93;;;4.53;;
43990;SDS011;29654;50.784;20.604;2022-07-05T14:49:37;5.63;;;4.47;;
43990;SDS011;29654;50.784;20.604;2022-07-05T14:54:41;4.88;;;3.58;;
43990;SDS011;29654;50.784;20.604;2022-07-05T14:59:44;3.13;;;2.92;;
43990;SDS011;29654;50.784;20.604;2022-07-05T15:04:46;3.50;;;2.70;;
43990;SDS011;29654;50.784;20.604;2022-07-05T15:09:51;2.58;;;2.38;;
43990;SDS011;29654;50.784;20.604;2022-07-05T15:14:55;2.22;;;2.03;;
43990;SDS011;29654;50.784;20.604;2022-07-05T15:19:57;2.20;;;2.10;;
43990;SDS011;29654;50.784;20.604;2022-07-05T15:25:02;2.80;;;2.60;;
43990;SDS011;29654;50.784;20.604;2022-07-05T15:30:06;2.60;;;2.40;;
43990;SDS011;29654;50.784;20.604;2022-07-05T15:35:10;2.60;;;2.40;;
43990;SDS011;29654;50.784;20.604;2022-07-05T15:40:15;2.75;;;2.55;;
43990;SDS011;29654;50.784;20.604;2022-07-05T15:45:17;2.80;;;2.60;;
43990;SDS011;29654;50.784;20.604;2022-07-05T15:50:21;2.92;;;2.60;;
43990;SDS011;29654;50.784;20.604;2022-07-05T15:55:25;2.83;;;2.63;;
43990;SDS011;29654;50.784;20.604;2022-07-05T16:00:28;3.10;;;2.90;;
43990;SDS011;29654;50.784;20.604;2022-07-05T16:05:31;3.85;;;3.30;;
43990;SDS011;29654;50.784;20.604;2022-07-05T16:10:35;4.05;;;3.75;;
43990;SDS011;29654;50.784;20.604;2022-07-05T16:15:38;6.07;;;3.60;;
43990;SDS011;29654;50.784;20.604;2022-07-05T16:21:13;3.70;;;3.47;;
43990;SDS011;29654;50.784;20.604;2022-07-05T16:26:19;3.70;;;3.50;;
43990;SDS011;29654;50.784;20.604;2022-07-05T16:31:23;3.65;;;3.28;;
43990;SDS011;29654;50.784;20.604;2022-07-05T16:36:27;3.03;;;2.85;;
43990;SDS011;29654;50.784;20.604;2022-07-05T16:41:32;3.60;;;3.30;;
43990;SDS011;29654;50.784;20.604;2022-07-05T16:46:34;4.25;;;3.88;;
43990;SDS011;29654;50.784;20.604;2022-07-05T16:51:38;4.15;;;3.85;;
43990;SDS011;29654;50.784;20.604;2022-07-05T16:56:42;4.13;;;3.83;;
43990;SDS011;29654;50.784;20.604;2022-07-05T17:01:45;4.88;;;4.53;;
43990;SDS011;29654;50.784;20.604;2022-07-05T17:06:48;5.15;;;4.80;;
43990;SDS011;29654;50.784;20.604;2022-07-05T17:11:52;5.53;;;5.13;;
43990;SDS011;29654;50.784;20.604;2022-07-05T17:16:55;6.43;;;5.93;;
43990;SDS011;29654;50.784;20.604;2022-07-05T17:21:58;5.63;;;5.13;;
43990;SDS011;29654;50.784;20.604;2022-07-05T17:27:02;5.25;;;4.85;;
43990;SDS011;29654;50.784;20.604;2022-07-05T17:32:06;5.50;;;4.88;;
43990;SDS011;29654;50.784;20.604;2022-07-05T17:37:10;5.25;;;4.85;;
43990;SDS011;29654;50.784;20.604;2022-07-05T17:42:14;4.88;;;4.47;;
43990;SDS011;29654;50.784;20.604;2022-07-05T17:47:17;4.97;;;4.57;;
43990;SDS011;29654;50.784;20.604;2022-07-05T17:52:20;4.10;;;3.80;;
43990;SDS011;29654;50.784;20.604;2022-07-05T17:57:25;3.47;;;3.28;;
43990;SDS011;29654;50.784;20.604;2022-07-05T18:02:28;4.07;;;3.78;;
43990;SDS011;29654;50.784;20.604;2022-07-05T18:07:31;3.60;;;3.30;;
43990;SDS011;29654;50.784;20.604;2022-07-05T18:12:35;3.55;;;3.35;;
43990;SDS011;29654;50.784;20.604;2022-07-05T18:17:38;3.95;;;3.63;;
43990;SDS011;29654;50.784;20.604;2022-07-05T18:22:41;3.53;;;3.33;;
43990;SDS011;29654;50.784;20.604;2022-07-05T18:27:45;3.60;;;3.30;;
43990;SDS011;29654;50.784;20.604;2022-07-05T18:32:48;3.45;;;3.13;;
43990;SDS011;29654;50.784;20.604;2022-07-05T18:37:51;3.75;;;3.42;;
43990;SDS011;29654;50.784;20.604;2022-07-05T18:42:55;4.10;;;3.80;;
43990;SDS011;29654;50.784;20.604;2022-07-05T18:47:58;4.13;;;3.60;;
43990;SDS011;29654;50.784;20.604;2022-07-05T18:53:01;3.53;;;3.33;;
43990;SDS011;29654;50.784;20.604;2022-07-05T18:58:05;3.60;;;3.20;;
43990;SDS011;29654;50.784;20.604;2022-07-05T19:03:08;3.60;;;3.33;;
43990;SDS011;29654;50.784;20.604;2022-07-05T19:08:11;4.20;;;3.78;;
43990;SDS011;29654;50.784;20.604;2022-07-05T19:13:32;3.30;;;3.10;;
43990;SDS011;29654;50.784;20.604;2022-07-05T19:18:47;3.95;;;3.65;;
43990;SDS011;29654;50.784;20.604;2022-07-05T19:23:50;3.85;;;3.55;;
43990;SDS011;29654;50.784;20.604;2022-07-05T19:28:54;4.53;;;4.13;;
43990;SDS011;29654;50.784;20.604;2022-07-05T19:33:57;3.97;;;3.67;;
43990;SDS011;29654;50.784;20.604;2022-07-05T19:39:00;4.43;;;4.13;;
43990;SDS011;29654;50.784;20.604;2022-07-05T19:44:05;4.35;;;4.05;;
43990;SDS011;29654;50.784;20.604;2022-07-05T19:49:07;5.18;;;4.78;;
43990;SDS011;29654;50.784;20.604;2022-07-05T19:54:11;5.50;;;5.05;;
43990;SDS011;29654;50.784;20.604;2022-07-05T19:59:16;5.93;;;5.32;;
43990;SDS011;29654;50.784;20.604;2022-07-05T20:04:19;4.90;;;4.50;;
43990;SDS011;29654;50.784;20.604;2022-07-05T20:09:22;4.88;;;4.57;;
43990;SDS011;29654;50.784;20.604;2022-07-05T20:14:27;4.70;;;4.40;;
43990;SDS011;29654;50.784;20.604;2022-07-05T20:19:30;4.28;;;3.97;;
43990;SDS011;29654;50.784;20.604;2022-07-05T20:24:33;4.45;;;4.05;;
43990;SDS011;29654;50.784;20.604;2022-07-05T20:29:37;4.47;;;4.18;;
43990;SDS011;29654;50.784;20.604;2022-07-05T20:34:40;5.03;;;4.63;;
43990;SDS011;29654;50.784;20.604;2022-07-05T20:39:44;4.82;;;4.43;;
43990;SDS011;29654;50.784;20.604;2022-07-05T20:44:51;3.60;;;3.30;;
43990;SDS011;29654;50.784;20.604;2022-07-05T20:49:54;4.78;;;4.38;;
43990;SDS011;29654;50.784;20.604;2022-07-05T20:54:57;4.50;;;4.10;;
43990;SDS011;29654;50.784;20.604;2022-07-05T21:00:02;3.80;;;3.50;;
43990;SDS011;29654;50.784;20.604;2022-07-05T21:05:07;3.70;;;3.42;;
43990;SDS011;29654;50.784;20.604;2022-07-05T21:10:10;5.40;;;4.03;;
43990;SDS011;29654;50.784;20.604;2022-07-05T21:15:15;4.22;;;3.92;;
43990;SDS011;29654;50.784;20.604;2022-07-05T21:20:19;4.80;;;4.40;;
43990;SDS011;29654;50.784;20.604;2022-07-05T21:25:22;5.82;;;5.38;;
43990;SDS011;29654;50.784;20.604;2022-07-05T21:30:26;5.85;;;5.25;;
43990;SDS011;29654;50.784;20.604;2022-07-05T21:35:29;5.25;;;4.85;;
43990;SDS011;29654;50.784;20.604;2022-07-05T21:40:32;5.78;;;5.25;;
43990;SDS011;29654;50.784;20.604;2022-07-05T21:45:37;4.72;;;4.28;;
43990;SDS011;29654;50.784;20.604;2022-07-05T21:50:40;4.88;;;3.75;;
43990;SDS011;29654;50.784;20.604;2022-07-05T21:55:42;3.90;;;3.60;;
43990;SDS011;29654;50.784;20.604;2022-07-05T22:00:47;3.45;;;3.15;;
43990;SDS011;29654;50.784;20.604;2022-07-05T22:06:07;2.47;;;2.28;;
43990;SDS011;29654;50.784;20.604;2022-07-05T22:11:10;2.33;;;2.17;;
43990;SDS011;29654;50.784;20.604;2022-07-05T22:16:32;2.55;;;2.42;;
43990;SDS011;29654;50.784;20.604;2022-07-05T22:21:35;2.80;;;2.60;;
43990;SDS011;29654;50.784;20.604;2022-07-05T22:26:37;2.92;;;2.65;;
43990;SDS011;29654;50.784;20.604;2022-07-05T22:31:42;3.00;;;2.80;;
43990;SDS011;29654;50.784;20.604;2022-07-05T22:36:44;3.17;;;2.97;;
43990;SDS011;29654;50.784;20.604;2022-07-05T22:41:47;3.42;;;3.13;;
43990;SDS011;29654;50.784;20.604;2022-07-05T22:46:51;3.78;;;3.50;;
43990;SDS011;29654;50.784;20.604;2022-07-05T22:51:54;3.78;;;3.47;;
43990;SDS011;29654;50.784;20.604;2022-07-05T22:56:57;4.07;;;3.53;;
43990;SDS011;29654;50.784;20.604;2022-07-05T23:02:01;3.85;;;3.55;;
43990;SDS011;29654;50.784;20.604;2022-07-05T23:07:04;3.85;;;3.55;;
43990;SDS011;29654;50.784;20.604;2022-07-05T23:12:07;4.45;;;3.58;;
43990;SDS011;29654;50.784;20.604;2022-07-05T23:17:12;3.10;;;2.78;;
43990;SDS011;29654;50.784;20.604;2022-07-05T23:22:15;3.22;;;3.03;;
43990;SDS011;29654;50.784;20.604;2022-07-05T23:27:18;2.85;;;2.65;;
43990;SDS011;29654;50.784;20.604;2022-07-05T23:32:22;3.53;;;3.25;;
43990;SDS011;29654;50.784;20.604;2022-07-05T23:37:25;3.28;;;2.80;;
43990;SDS011;29654;50.784;20.604;2022-07-05T23:42:28;2.53;;;2.33;;
43990;SDS011;29654;50.784;20.604;2022-07-05T23:47:33;2.53;;;2.33;;
43990;SDS011;29654;50.784;20.604;2022-07-05T23:52:36;2.40;;;2.25;;
43990;SDS011;29654;50.784;20.604;2022-07-05T23:57:39;2.63;;;2.50;;
